sensor_id;sensor_type;location;lat;lon;timestamp;pressure;altitude;pressure_sealevel;temperature;humidity
61035;BME280;46916;40.564;-7.958;2023-07-24T00:00:54;97351.56;;;20.15;71.71
61035;BME280;46916;40.564;-7.958;2023-07-24T00:02:54;97353.47;;;20.21;71.54
61035;BME280;46916;40.564;-7.958;2023-07-24T00:04:56;97353.91;;;20.24;71.40
61035;BME280;46916;40.564;-7.958;2023-07-24T00:06:56;97356.56;;;20.24;70.96
61035;BME280;46916;40.564;-7.958;2023-07-24T00:08:57;97354.75;;;20.25;71.05
61035;BME280;46916;40.564;-7.958;2023-07-24T00:10:57;97364.53;;;20.24;71.37
61035;BME280;46916;40.564;-7.958;2023-07-24T00:13:36;97356.56;;;20.24;71.33
61035;BME280;46916;40.564;-7.958;2023-07-24T00:15:38;97359.66;;;20.28;71.16
61035;BME280;46916;40.564;-7.958;2023-07-24T00:17:38;97357.63;;;20.30;71.54
61035;BME280;46916;40.564;-7.958;2023-07-24T00:19:39;97350.47;;;20.31;71.93
61035;BME280;46916;40.564;-7.958;2023-07-24T00:21:39;97354.59;;;20.33;71.06
61035;BME280;46916;40.564;-7.958;2023-07-24T00:23:58;97350.28;;;20.32;71.33
61035;BME280;46916;40.564;-7.958;2023-07-24T00:25:59;97347.44;;;20.34;71.24
61035;BME280;46916;40.564;-7.958;2023-07-24T00:27:59;97342.56;;;20.37;71.19
61035;BME280;46916;40.564;-7.958;2023-07-24T00:29:59;97343.97;;;20.33;71.38
61035;BME280;46916;40.564;-7.958;2023-07-24T00:32:18;97341.69;;;20.30;71.25
61035;BME280;46916;40.564;-7.958;2023-07-24T00:34:19;97345.91;;;20.24;71.63
61035;BME280;46916;40.564;-7.958;2023-07-24T00:36:20;97339.78;;;20.24;71.65
61035;BME280;46916;40.564;-7.958;2023-07-24T00:38:20;97341.63;;;20.23;71.88
61035;BME280;46916;40.564;-7.958;2023-07-24T00:40:39;97339.97;;;20.22;71.58
61035;BME280;46916;40.564;-7.958;2023-07-24T00:42:39;97340.81;;;20.23;71.57
61035;BME280;46916;40.564;-7.958;2023-07-24T00:44:40;97340.44;;;20.26;71.54
61035;BME280;46916;40.564;-7.958;2023-07-24T00:46:41;97336.38;;;20.30;71.42
61035;BME280;46916;40.564;-7.958;2023-07-24T00:48:41;97342.50;;;20.31;71.89
61035;BME280;46916;40.564;-7.958;2023-07-24T00:50:42;97337.19;;;20.31;71.64
61035;BME280;46916;40.564;-7.958;2023-07-24T00:52:44;97337.78;;;20.26;71.74
61035;BME280;46916;40.564;-7.958;2023-07-24T00:54:45;97337.53;;;20.21;71.92
61035;BME280;46916;40.564;-7.958;2023-07-24T00:56:47;97335.88;;;20.20;72.47
61035;BME280;46916;40.564;-7.958;2023-07-24T00:58:48;97333.19;;;20.20;72.14
61035;BME280;46916;40.564;-7.958;2023-07-24T01:00:48;97332.38;;;20.19;72.28
61035;BME280;46916;40.564;-7.958;2023-07-24T01:02:50;97330.94;;;20.17;72.46
61035;BME280;46916;40.564;-7.958;2023-07-24T01:04:51;97325.19;;;20.13;72.38
61035;BME280;46916;40.564;-7.958;2023-07-24T01:06:52;97327.22;;;20.11;72.55
61035;BME280;46916;40.564;-7.958;2023-07-24T01:08:52;97326.97;;;20.06;73.15
61035;BME280;46916;40.564;-7.958;2023-07-24T01:10:53;97328.56;;;20.00;73.14
61035;BME280;46916;40.564;-7.958;2023-07-24T01:13:15;97326.09;;;19.99;73.13
61035;BME280;46916;40.564;-7.958;2023-07-24T01:15:37;97324.13;;;19.86;74.20
61035;BME280;46916;40.564;-7.958;2023-07-24T01:17:36;97327.16;;;19.83;74.39
61035;BME280;46916;40.564;-7.958;2023-07-24T01:19:43;97329.00;;;19.83;73.74
61035;BME280;46916;40.564;-7.958;2023-07-24T01:22:30;97318.59;;;19.81;74.33
61035;BME280;46916;40.564;-7.958;2023-07-24T01:26:10;97313.88;;;19.83;73.94
61035;BME280;46916;40.564;-7.958;2023-07-24T01:28:11;97316.16;;;19.86;73.98
61035;BME280;46916;40.564;-7.958;2023-07-24T01:40:43;97309.53;;;19.75;74.64
61035;BME280;46916;40.564;-7.958;2023-07-24T01:42:44;97314.22;;;19.73;75.01
61035;BME280;46916;40.564;-7.958;2023-07-24T01:44:44;97313.19;;;19.74;74.99
61035;BME280;46916;40.564;-7.958;2023-07-24T01:47:03;97310.75;;;19.73;75.38
61035;BME280;46916;40.564;-7.958;2023-07-24T01:49:04;97307.63;;;19.69;75.48
61035;BME280;46916;40.564;-7.958;2023-07-24T01:51:04;97299.22;;;19.66;75.66
61035;BME280;46916;40.564;-7.958;2023-07-24T01:53:05;97301.25;;;19.64;75.48
61035;BME280;46916;40.564;-7.958;2023-07-24T01:55:05;97299.78;;;19.61;75.94
61035;BME280;46916;40.564;-7.958;2023-07-24T01:57:06;97296.75;;;19.64;75.65
61035;BME280;46916;40.564;-7.958;2023-07-24T01:59:07;97298.59;;;19.64;75.68
61035;BME280;46916;40.564;-7.958;2023-07-24T02:01:07;97290.44;;;19.65;75.74
61035;BME280;46916;40.564;-7.958;2023-07-24T02:03:08;97288.59;;;19.66;75.80
61035;BME280;46916;40.564;-7.958;2023-07-24T02:05:08;97291.81;;;19.61;76.04
61035;BME280;46916;40.564;-7.958;2023-07-24T02:07:27;97283.84;;;19.61;76.12
61035;BME280;46916;40.564;-7.958;2023-07-24T02:09:28;97288.31;;;19.61;76.35
61035;BME280;46916;40.564;-7.958;2023-07-24T02:11:28;97286.69;;;19.60;76.38
61035;BME280;46916;40.564;-7.958;2023-07-24T02:13:29;97291.81;;;19.61;76.10
61035;BME280;46916;40.564;-7.958;2023-07-24T02:15:29;97284.31;;;19.65;76.10
61035;BME280;46916;40.564;-7.958;2023-07-24T02:17:30;97290.06;;;19.68;76.17
61035;BME280;46916;40.564;-7.958;2023-07-24T02:19:30;97286.63;;;19.74;75.77
61035;BME280;46916;40.564;-7.958;2023-07-24T02:21:31;97287.72;;;19.80;75.58
61035;BME280;46916;40.564;-7.958;2023-07-24T02:23:32;97285.47;;;19.84;75.46
61035;BME280;46916;40.564;-7.958;2023-07-24T02:25:32;97289.38;;;19.88;75.35
61035;BME280;46916;40.564;-7.958;2023-07-24T02:27:33;97277.56;;;19.90;75.32
61035;BME280;46916;40.564;-7.958;2023-07-24T02:29:34;97287.81;;;19.93;75.17
61035;BME280;46916;40.564;-7.958;2023-07-24T02:31:36;97286.22;;;19.99;75.18
61035;BME280;46916;40.564;-7.958;2023-07-24T02:33:36;97284.38;;;19.99;74.72
61035;BME280;46916;40.564;-7.958;2023-07-24T02:35:40;97284.38;;;19.99;74.77
61035;BME280;46916;40.564;-7.958;2023-07-24T02:37:41;97276.41;;;19.99;74.98
61035;BME280;46916;40.564;-7.958;2023-07-24T02:40:00;97279.69;;;20.01;74.94
61035;BME280;46916;40.564;-7.958;2023-07-24T02:42:01;97275.00;;;20.03;75.20
61035;BME280;46916;40.564;-7.958;2023-07-24T02:44:02;97266.03;;;20.04;74.58
61035;BME280;46916;40.564;-7.958;2023-07-24T02:46:03;97267.03;;;20.03;75.18
61035;BME280;46916;40.564;-7.958;2023-07-24T02:48:03;97263.09;;;19.99;75.37
61035;BME280;46916;40.564;-7.958;2023-07-24T02:50:04;97263.53;;;19.96;75.19
61035;BME280;46916;40.564;-7.958;2023-07-24T02:52:05;97258.53;;;19.87;76.03
61035;BME280;46916;40.564;-7.958;2023-07-24T02:54:06;97260.72;;;19.83;75.96
61035;BME280;46916;40.564;-7.958;2023-07-24T02:56:06;97259.91;;;19.83;75.96
61035;BME280;46916;40.564;-7.958;2023-07-24T02:58:07;97259.47;;;19.79;76.13
61035;BME280;46916;40.564;-7.958;2023-07-24T03:00:07;97269.50;;;19.77;76.18
61035;BME280;46916;40.564;-7.958;2023-07-24T03:02:08;97270.69;;;19.74;76.40
61035;BME280;46916;40.564;-7.958;2023-07-24T03:04:08;97275.81;;;19.76;76.06
61035;BME280;46916;40.564;-7.958;2023-07-24T03:06:09;97276.44;;;19.78;76.07
61035;BME280;46916;40.564;-7.958;2023-07-24T03:08:09;97266.06;;;19.83;76.04
61035;BME280;46916;40.564;-7.958;2023-07-24T03:10:10;97272.63;;;19.87;75.99
61035;BME280;46916;40.564;-7.958;2023-07-24T03:12:10;97265.28;;;19.89;75.86
61035;BME280;46916;40.564;-7.958;2023-07-24T03:14:11;97268.41;;;19.93;75.77
61035;BME280;46916;40.564;-7.958;2023-07-24T03:16:12;97264.06;;;19.92;75.53
61035;BME280;46916;40.564;-7.958;2023-07-24T03:18:12;97266.94;;;19.90;75.76
61035;BME280;46916;40.564;-7.958;2023-07-24T03:20:16;97265.91;;;19.91;75.66
61035;BME280;46916;40.564;-7.958;2023-07-24T03:22:17;97265.28;;;19.89;75.71
61035;BME280;46916;40.564;-7.958;2023-07-24T03:24:18;97264.47;;;19.89;75.71
61035;BME280;46916;40.564;-7.958;2023-07-24T03:26:18;97267.31;;;19.87;76.13
61035;BME280;46916;40.564;-7.958;2023-07-24T03:28:20;97265.69;;;19.86;75.91
61035;BME280;46916;40.564;-7.958;2023-07-24T03:37:19;97260.13;;;19.81;76.13
61035;BME280;46916;40.564;-7.958;2023-07-24T03:39:19;97260.72;;;19.83;76.02
61035;BME280;46916;40.564;-7.958;2023-07-24T03:41:20;97259.53;;;19.86;76.12
61035;BME280;46916;40.564;-7.958;2023-07-24T03:43:20;97264.84;;;19.86;75.83
61035;BME280;46916;40.564;-7.958;2023-07-24T03:45:21;97249.53;;;19.88;76.10
61035;BME280;46916;40.564;-7.958;2023-07-24T03:47:21;97260.81;;;19.90;76.20
61035;BME280;46916;40.564;-7.958;2023-07-24T03:49:22;97259.59;;;19.92;75.73
61035;BME280;46916;40.564;-7.958;2023-07-24T03:51:23;97259.41;;;19.94;75.80
61035;BME280;46916;40.564;-7.958;2023-07-24T03:53:42;97262.88;;;19.94;75.79
61035;BME280;46916;40.564;-7.958;2023-07-24T03:55:42;97259.59;;;19.92;75.65
61035;BME280;46916;40.564;-7.958;2023-07-24T03:57:43;97252.63;;;19.91;75.77
61035;BME280;46916;40.564;-7.958;2023-07-24T03:59:43;97256.31;;;19.90;75.81
61035;BME280;46916;40.564;-7.958;2023-07-24T04:01:44;97261.81;;;19.89;75.81
61035;BME280;46916;40.564;-7.958;2023-07-24T04:03:44;97261.81;;;19.89;75.91
61035;BME280;46916;40.564;-7.958;2023-07-24T04:05:45;97259.97;;;19.89;75.81
61035;BME280;46916;40.564;-7.958;2023-07-24T04:08:04;97264.47;;;19.89;75.40
61035;BME280;46916;40.564;-7.958;2023-07-24T04:10:05;97259.97;;;19.89;75.48
61035;BME280;46916;40.564;-7.958;2023-07-24T04:12:05;97263.66;;;19.88;75.80
61035;BME280;46916;40.564;-7.958;2023-07-24T04:14:06;97268.97;;;19.88;75.54
61035;BME280;46916;40.564;-7.958;2023-07-24T04:16:06;97273.28;;;19.89;75.69
61035;BME280;46916;40.564;-7.958;2023-07-24T04:18:07;97276.38;;;19.93;75.68
61035;BME280;46916;40.564;-7.958;2023-07-24T04:20:07;97271.88;;;19.93;75.53
61035;BME280;46916;40.564;-7.958;2023-07-24T04:22:08;97278.81;;;19.94;75.77
61035;BME280;46916;40.564;-7.958;2023-07-24T04:24:27;97269.81;;;19.95;75.70
61035;BME280;46916;40.564;-7.958;2023-07-24T04:26:28;97279.47;;;19.96;75.46
61035;BME280;46916;40.564;-7.958;2023-07-24T04:28:28;97273.31;;;19.96;75.54
61035;BME280;46916;40.564;-7.958;2023-07-24T04:30:29;97279.63;;;19.95;75.68
61035;BME280;46916;40.564;-7.958;2023-07-24T04:35:07;97274.91;;;19.90;75.33
61035;BME280;46916;40.564;-7.958;2023-07-24T04:37:07;97287.75;;;19.87;75.67
61035;BME280;46916;40.564;-7.958;2023-07-24T04:39:08;97279.97;;;19.85;75.74
61035;BME280;46916;40.564;-7.958;2023-07-24T04:41:08;97280.34;;;19.82;76.00
61035;BME280;46916;40.564;-7.958;2023-07-24T04:43:09;97282.41;;;19.80;75.90
61035;BME280;46916;40.564;-7.958;2023-07-24T04:45:09;97280.72;;;19.79;76.03
61035;BME280;46916;40.564;-7.958;2023-07-24T04:47:10;97281.38;;;19.81;75.92
61035;BME280;46916;40.564;-7.958;2023-07-24T04:49:10;97276.69;;;19.83;75.71
61035;BME280;46916;40.564;-7.958;2023-07-24T04:51:11;97281.00;;;19.84;75.52
61035;BME280;46916;40.564;-7.958;2023-07-24T04:53:11;97274.66;;;19.85;75.43
61035;BME280;46916;40.564;-7.958;2023-07-24T04:55:12;97276.69;;;19.83;75.44
61035;BME280;46916;40.564;-7.958;2023-07-24T04:57:12;97274.22;;;19.82;75.49
61035;BME280;46916;40.564;-7.958;2023-07-24T04:59:31;97273.41;;;19.81;75.52
61035;BME280;46916;40.564;-7.958;2023-07-24T05:01:32;97269.72;;;19.82;75.38
61035;BME280;46916;40.564;-7.958;2023-07-24T05:03:32;97277.69;;;19.82;75.38
61035;BME280;46916;40.564;-7.958;2023-07-24T05:05:33;97271.78;;;19.80;75.69
61035;BME280;46916;40.564;-7.958;2023-07-24T05:07:33;97269.50;;;19.77;75.75
61035;BME280;46916;40.564;-7.958;2023-07-24T05:09:34;97275.19;;;19.74;76.24
61035;BME280;46916;40.564;-7.958;2023-07-24T05:11:53;97274.94;;;19.69;76.24
61035;BME280;46916;40.564;-7.958;2023-07-24T05:13:53;97272.28;;;19.69;76.31
61035;BME280;46916;40.564;-7.958;2023-07-24T05:15:54;97276.78;;;19.68;76.37
61035;BME280;46916;40.564;-7.958;2023-07-24T05:17:54;97279.22;;;19.70;76.75
61035;BME280;46916;40.564;-7.958;2023-07-24T05:19:54;97280.69;;;19.72;76.47
61035;BME280;46916;40.564;-7.958;2023-07-24T05:21:55;97275.19;;;19.74;76.61
61035;BME280;46916;40.564;-7.958;2023-07-24T05:23:55;97279.69;;;19.73;76.22
61035;BME280;46916;40.564;-7.958;2023-07-24T05:25:56;97282.53;;;19.72;76.36
61035;BME280;46916;40.564;-7.958;2023-07-24T05:27:58;97276.38;;;19.71;76.60
61035;BME280;46916;40.564;-7.958;2023-07-24T05:29:58;97271.63;;;19.67;76.66
61035;BME280;46916;40.564;-7.958;2023-07-24T05:31:59;97274.50;;;19.65;76.77
61035;BME280;46916;40.564;-7.958;2023-07-24T05:33:59;97272.03;;;19.64;77.02
61035;BME280;46916;40.564;-7.958;2023-07-24T05:36:00;97273.03;;;19.63;76.81
61035;BME280;46916;40.564;-7.958;2023-07-24T05:38:01;97276.22;;;19.58;77.14
61035;BME280;46916;40.564;-7.958;2023-07-24T05:40:20;97276.22;;;19.58;76.91
61035;BME280;46916;40.564;-7.958;2023-07-24T05:42:20;97272.75;;;19.58;77.25
61035;BME280;46916;40.564;-7.958;2023-07-24T05:44:21;97271.13;;;19.57;77.03
61035;BME280;46916;40.564;-7.958;2023-07-24T05:46:21;97273.31;;;19.53;77.20
61035;BME280;46916;40.564;-7.958;2023-07-24T05:48:23;97281.28;;;19.53;77.04
61035;BME280;46916;40.564;-7.958;2023-07-24T05:50:23;97283.75;;;19.54;77.21
61035;BME280;46916;40.564;-7.958;2023-07-24T05:52:24;97284.56;;;19.55;77.18
61035;BME280;46916;40.564;-7.958;2023-07-24T05:54:24;97283.75;;;19.54;77.01
61035;BME280;46916;40.564;-7.958;2023-07-24T05:56:25;97282.94;;;19.54;77.19
61035;BME280;46916;40.564;-7.958;2023-07-24T05:58:25;97277.00;;;19.52;77.14
61035;BME280;46916;40.564;-7.958;2023-07-24T06:00:26;97284.16;;;19.51;77.12
61035;BME280;46916;40.564;-7.958;2023-07-24T06:02:26;97276.34;;;19.50;77.29
61035;BME280;46916;40.564;-7.958;2023-07-24T06:04:46;97278.84;;;19.51;77.14
61035;BME280;46916;40.564;-7.958;2023-07-24T06:06:47;97280.47;;;19.52;77.28
61035;BME280;46916;40.564;-7.958;2023-07-24T06:08:47;97275.16;;;19.52;77.40
61035;BME280;46916;40.564;-7.958;2023-07-24T06:10:48;97285.41;;;19.55;77.38
61035;BME280;46916;40.564;-7.958;2023-07-24T06:12:51;97299.13;;;19.59;77.16
61035;BME280;46916;40.564;-7.958;2023-07-24T06:14:52;97291.63;;;19.63;77.07
61035;BME280;46916;40.564;-7.958;2023-07-24T06:16:52;97300.84;;;19.67;76.58
61035;BME280;46916;40.564;-7.958;2023-07-24T06:18:53;97296.00;;;19.70;76.56
61035;BME280;46916;40.564;-7.958;2023-07-24T06:21:12;97294.78;;;19.73;76.84
61035;BME280;46916;40.564;-7.958;2023-07-24T06:23:12;97302.41;;;19.76;76.46
61035;BME280;46916;40.564;-7.958;2023-07-24T06:25:13;97304.03;;;19.77;76.39
61035;BME280;46916;40.564;-7.958;2023-07-24T06:27:13;97304.66;;;19.79;76.29
61035;BME280;46916;40.564;-7.958;2023-07-24T06:29:14;97301.41;;;19.84;76.16
61035;BME280;46916;40.564;-7.958;2023-07-24T06:31:14;97309.84;;;19.87;76.06
61035;BME280;46916;40.564;-7.958;2023-07-24T06:33:15;97307.00;;;19.89;76.00
61035;BME280;46916;40.564;-7.958;2023-07-24T06:35:15;97309.66;;;19.89;75.98
61035;BME280;46916;40.564;-7.958;2023-07-24T06:37:16;97309.66;;;19.89;76.26
61035;BME280;46916;40.564;-7.958;2023-07-24T06:39:16;97312.31;;;19.89;76.16
61035;BME280;46916;40.564;-7.958;2023-07-24T06:41:17;97311.50;;;19.88;76.29
61035;BME280;46916;40.564;-7.958;2023-07-24T06:43:17;97312.94;;;19.91;76.42
61035;BME280;46916;40.564;-7.958;2023-07-24T06:45:18;97312.13;;;19.90;76.52
61035;BME280;46916;40.564;-7.958;2023-07-24T06:47:37;97318.91;;;19.93;76.62
61035;BME280;46916;40.564;-7.958;2023-07-24T06:49:56;97321.72;;;19.91;76.78
61035;BME280;46916;40.564;-7.958;2023-07-24T06:52:16;97320.91;;;19.91;76.91
61035;BME280;46916;40.564;-7.958;2023-07-24T06:54:16;97316.41;;;19.91;76.51
61035;BME280;46916;40.564;-7.958;2023-07-24T06:56:17;97318.91;;;19.93;76.75
61035;BME280;46916;40.564;-7.958;2023-07-24T06:58:17;97324.00;;;19.94;76.75
61035;BME280;46916;40.564;-7.958;2023-07-24T07:00:18;97323.81;;;19.96;76.93
61035;BME280;46916;40.564;-7.958;2023-07-24T07:02:18;97324.44;;;19.98;76.52
61035;BME280;46916;40.564;-7.958;2023-07-24T07:04:19;97329.97;;;19.96;76.83
61035;BME280;46916;40.564;-7.958;2023-07-24T07:06:37;97320.31;;;19.95;77.14
61035;BME280;46916;40.564;-7.958;2023-07-24T07:08:38;97328.56;;;20.00;77.20
61035;BME280;46916;40.564;-7.958;2023-07-24T07:10:38;97332.91;;;20.08;76.75
61035;BME280;46916;40.564;-7.958;2023-07-24T07:12:58;97341.97;;;20.14;76.31
61035;BME280;46916;40.564;-7.958;2023-07-24T07:15:16;97337.81;;;20.04;77.00
61035;BME280;46916;40.564;-7.958;2023-07-24T07:17:17;97341.28;;;20.05;76.95
61035;BME280;46916;40.564;-7.958;2023-07-24T07:19:17;97345.22;;;20.09;76.81
61035;BME280;46916;40.564;-7.958;2023-07-24T07:21:18;97336.00;;;20.12;76.81
61035;BME280;46916;40.564;-7.958;2023-07-24T07:23:36;97343.75;;;20.07;76.76
61035;BME280;46916;40.564;-7.958;2023-07-24T07:25:55;97346.16;;;20.01;77.57
61035;BME280;46916;40.564;-7.958;2023-07-24T07:27:56;97345.13;;;20.02;77.09
61035;BME280;46916;40.564;-7.958;2023-07-24T07:29:56;97355.78;;;20.02;77.33
61035;BME280;46916;40.564;-7.958;2023-07-24T07:39:15;97362.03;;;19.95;78.31
61035;BME280;46916;40.564;-7.958;2023-07-24T07:41:15;97356.56;;;19.96;78.14
61035;BME280;46916;40.564;-7.958;2023-07-24T07:43:16;97361.66;;;19.98;77.83
61035;BME280;46916;40.564;-7.958;2023-07-24T07:45:16;97364.53;;;19.96;78.28
61035;BME280;46916;40.564;-7.958;2023-07-24T07:47:17;97364.75;;;20.01;78.22
61035;BME280;46916;40.564;-7.958;2023-07-24T07:49:17;97371.97;;;20.08;77.99
61035;BME280;46916;40.564;-7.958;2023-07-24T07:51:18;97363.41;;;20.12;77.77
61035;BME280;46916;40.564;-7.958;2023-07-24T07:53:18;97363.47;;;20.19;77.48
61035;BME280;46916;40.564;-7.958;2023-07-24T07:55:19;97369.22;;;20.22;77.28
61035;BME280;46916;40.564;-7.958;2023-07-24T07:57:19;97374.78;;;20.27;77.47
61035;BME280;46916;40.564;-7.958;2023-07-24T07:59:20;97367.06;;;20.33;77.35
61035;BME280;46916;40.564;-7.958;2023-07-24T08:01:20;97365.66;;;20.37;76.96
61035;BME280;46916;40.564;-7.958;2023-07-24T08:03:21;97367.94;;;20.40;76.96
61035;BME280;46916;40.564;-7.958;2023-07-24T08:05:22;97372.22;;;20.41;77.29
61035;BME280;46916;40.564;-7.958;2023-07-24T08:07:22;97370.81;;;20.45;76.78
61035;BME280;46916;40.564;-7.958;2023-07-24T08:09:41;97375.41;;;20.51;76.74
61035;BME280;46916;40.564;-7.958;2023-07-24T08:11:42;97369.72;;;20.54;76.82
61035;BME280;46916;40.564;-7.958;2023-07-24T08:13:42;97376.78;;;20.47;77.20
61035;BME280;46916;40.564;-7.958;2023-07-24T08:15:43;97373.31;;;20.46;77.21
61035;BME280;46916;40.564;-7.958;2023-07-24T08:17:43;97372.56;;;20.52;76.78
61035;BME280;46916;40.564;-7.958;2023-07-24T08:19:44;97381.63;;;20.58;76.49
61035;BME280;46916;40.564;-7.958;2023-07-24T08:21:44;97376.91;;;20.60;76.48
61035;BME280;46916;40.564;-7.958;2023-07-24T08:23:46;97377.94;;;20.59;76.72
61035;BME280;46916;40.564;-7.958;2023-07-24T08:26:06;97377.69;;;20.54;77.04
61035;BME280;46916;40.564;-7.958;2023-07-24T08:28:07;97379.94;;;20.57;77.16
61035;BME280;46916;40.564;-7.958;2023-07-24T08:30:28;97380.22;;;20.62;77.01
61035;BME280;46916;40.564;-7.958;2023-07-24T08:32:32;97379.78;;;20.65;76.47
61035;BME280;46916;40.564;-7.958;2023-07-24T08:34:33;97383.09;;;20.67;76.80
61035;BME280;46916;40.564;-7.958;2023-07-24T08:36:53;97381.25;;;20.68;76.58
61035;BME280;46916;40.564;-7.958;2023-07-24T08:38:54;97387.03;;;20.71;75.99
61035;BME280;46916;40.564;-7.958;2023-07-24T08:41:05;97391.13;;;20.74;76.00
61035;BME280;46916;40.564;-7.958;2023-07-24T08:43:06;97394.34;;;20.69;76.11
61035;BME280;46916;40.564;-7.958;2023-07-24T08:45:09;97394.19;;;20.71;76.19
61035;BME280;46916;40.564;-7.958;2023-07-24T08:47:11;97397.28;;;20.74;76.09
61035;BME280;46916;40.564;-7.958;2023-07-24T08:49:14;97386.44;;;20.76;75.61
61035;BME280;46916;40.564;-7.958;2023-07-24T08:51:33;97391.31;;;20.72;75.67
61035;BME280;46916;40.564;-7.958;2023-07-24T08:53:36;97387.78;;;20.65;75.86
61035;BME280;46916;40.564;-7.958;2023-07-24T08:55:36;97391.47;;;20.64;76.20
61035;BME280;46916;40.564;-7.958;2023-07-24T08:57:39;97388.22;;;20.69;76.41
61035;BME280;46916;40.564;-7.958;2023-07-24T08:59:39;97388.88;;;20.77;75.96
61035;BME280;46916;40.564;-7.958;2023-07-24T09:01:40;97393.81;;;20.81;75.56
61035;BME280;46916;40.564;-7.958;2023-07-24T09:03:41;97398.91;;;20.75;76.23
61035;BME280;46916;40.564;-7.958;2023-07-24T09:05:41;97392.09;;;20.66;76.45
61035;BME280;46916;40.564;-7.958;2023-07-24T09:07:41;97398.41;;;20.65;75.82
61035;BME280;46916;40.564;-7.958;2023-07-24T09:09:42;97394.34;;;20.63;76.04
61035;BME280;46916;40.564;-7.958;2023-07-24T09:11:49;97397.16;;;20.61;75.86
61035;BME280;46916;40.564;-7.958;2023-07-24T09:13:50;97391.03;;;20.61;76.91
61035;BME280;46916;40.564;-7.958;2023-07-24T09:15:51;97393.09;;;20.65;76.62
61035;BME280;46916;40.564;-7.958;2023-07-24T09:17:52;97398.47;;;20.72;76.08
61035;BME280;46916;40.564;-7.958;2023-07-24T09:19:56;97400.38;;;20.78;76.53
61035;BME280;46916;40.564;-7.958;2023-07-24T09:22:10;97398.56;;;20.85;75.98
61035;BME280;46916;40.564;-7.958;2023-07-24T09:24:12;97402.69;;;20.88;76.51
61035;BME280;46916;40.564;-7.958;2023-07-24T09:26:31;97409.06;;;20.93;76.49
61035;BME280;46916;40.564;-7.958;2023-07-24T09:28:32;97394.97;;;20.99;77.47
61035;BME280;46916;40.564;-7.958;2023-07-24T09:30:37;97406.50;;;21.07;77.09
61035;BME280;46916;40.564;-7.958;2023-07-24T09:32:38;97407.09;;;21.09;76.89
61035;BME280;46916;40.564;-7.958;2023-07-24T09:34:42;97419.38;;;21.03;77.50
61035;BME280;46916;40.564;-7.958;2023-07-24T09:36:43;97405.63;;;20.99;79.20
61035;BME280;46916;40.564;-7.958;2023-07-24T09:38:44;97406.44;;;21.00;79.59
61035;BME280;46916;40.564;-7.958;2023-07-24T09:40:46;97416.44;;;20.98;79.18
61035;BME280;46916;40.564;-7.958;2023-07-24T09:42:47;97411.69;;;20.87;80.66
61035;BME280;46916;40.564;-7.958;2023-07-24T09:45:06;97413.84;;;20.76;82.35
61035;BME280;46916;40.564;-7.958;2023-07-24T09:47:08;97405.50;;;20.80;82.64
61035;BME280;46916;40.564;-7.958;2023-07-24T09:49:08;97409.03;;;20.87;82.31
61035;BME280;46916;40.564;-7.958;2023-07-24T09:51:10;97415.84;;;20.96;81.32
61035;BME280;46916;40.564;-7.958;2023-07-24T09:53:33;97415.03;;;21.02;80.75
61035;BME280;46916;40.564;-7.958;2023-07-24T09:55:38;97410.34;;;21.04;83.11
61035;BME280;46916;40.564;-7.958;2023-07-24T09:57:42;97411.44;;;21.16;82.21
61035;BME280;46916;40.564;-7.958;2023-07-24T10:00:03;97410.63;;;21.16;81.85
61035;BME280;46916;40.564;-7.958;2023-07-24T10:02:05;97414.09;;;21.16;80.74
61035;BME280;46916;40.564;-7.958;2023-07-24T10:04:06;97412.06;;;21.18;80.04
61035;BME280;46916;40.564;-7.958;2023-07-24T10:06:10;97413.34;;;21.29;78.71
61035;BME280;46916;40.564;-7.958;2023-07-24T10:08:11;97406.25;;;21.43;78.29
61035;BME280;46916;40.564;-7.958;2023-07-24T10:10:13;97409.16;;;21.55;77.25
61035;BME280;46916;40.564;-7.958;2023-07-24T10:12:13;97405.50;;;21.62;76.30
61035;BME280;46916;40.564;-7.958;2023-07-24T10:14:15;97407.56;;;21.67;75.25
61035;BME280;46916;40.564;-7.958;2023-07-24T10:16:16;97395.69;;;21.69;74.47
61035;BME280;46916;40.564;-7.958;2023-07-24T10:18:16;97400.84;;;21.77;74.61
61035;BME280;46916;40.564;-7.958;2023-07-24T10:20:18;97401.25;;;21.88;72.88
61035;BME280;46916;40.564;-7.958;2023-07-24T10:22:20;97398.84;;;21.93;72.95
61035;BME280;46916;40.564;-7.958;2023-07-24T10:24:20;97403.75;;;21.89;72.69
61035;BME280;46916;40.564;-7.958;2023-07-24T10:26:28;97403.94;;;21.88;72.03
61035;BME280;46916;40.564;-7.958;2023-07-24T10:28:30;97398.19;;;21.91;71.51
61035;BME280;46916;40.564;-7.958;2023-07-24T10:30:31;97390.22;;;21.97;70.63
61035;BME280;46916;40.564;-7.958;2023-07-24T10:32:31;97392.88;;;22.04;69.58
61035;BME280;46916;40.564;-7.958;2023-07-24T10:34:38;97392.06;;;21.97;67.57
61035;BME280;46916;40.564;-7.958;2023-07-24T10:36:39;97385.50;;;21.99;67.30
61035;BME280;46916;40.564;-7.958;2023-07-24T10:38:41;97384.06;;;22.10;67.41
61035;BME280;46916;40.564;-7.958;2023-07-24T10:40:43;97385.53;;;22.19;66.86
61035;BME280;46916;40.564;-7.958;2023-07-24T10:42:43;97390.06;;;22.25;66.33
61035;BME280;46916;40.564;-7.958;2023-07-24T10:44:44;97398.28;;;22.17;65.55
61035;BME280;46916;40.564;-7.958;2023-07-24T10:46:44;97393.56;;;22.13;64.67
61035;BME280;46916;40.564;-7.958;2023-07-24T10:48:46;97391.25;;;22.10;64.63
61035;BME280;46916;40.564;-7.958;2023-07-24T10:50:48;97402.78;;;22.17;64.29
61035;BME280;46916;40.564;-7.958;2023-07-24T10:52:48;97391.94;;;22.25;64.63
61035;BME280;46916;40.564;-7.958;2023-07-24T10:54:50;97388.00;;;22.28;63.76
61035;BME280;46916;40.564;-7.958;2023-07-24T10:57:09;97387.63;;;22.37;63.19
61035;BME280;46916;40.564;-7.958;2023-07-24T10:59:10;97380.19;;;22.53;61.97
61035;BME280;46916;40.564;-7.958;2023-07-24T11:01:10;97378.13;;;22.61;60.79
61035;BME280;46916;40.564;-7.958;2023-07-24T11:03:11;97385.53;;;22.66;60.44
61035;BME280;46916;40.564;-7.958;2023-07-24T11:05:12;97379.78;;;22.62;59.39
61035;BME280;46916;40.564;-7.958;2023-07-24T11:07:16;97388.81;;;22.61;59.13
61035;BME280;46916;40.564;-7.958;2023-07-24T11:09:17;97388.44;;;22.58;58.13
61035;BME280;46916;40.564;-7.958;2023-07-24T11:11:17;97388.00;;;22.61;58.09
61035;BME280;46916;40.564;-7.958;2023-07-24T11:13:21;97378.75;;;22.63;58.14